Time;durP1;ratioP1;P1;durP2;ratioP2;P2;SDS_P1;SDS_P2;PMS_P1;PMS_P2;Temp;Humidity;BMP_temperature;BMP_pressure;BME280_temperature;BME280_humidity;BME280_pressure;Samples;Min_cycle;Max_cycle;Signal;HPM_P1;HPM_P2
2024/02/05 00:09:58;;;;;;;1.40;0.50;;;;;;;5.01;89.18;97870.80;435234;1251;109273;-40
2024/02/05 00:20:02;;;;;;;1.50;1.40;;;;;;;4.96;89.75;97860.09;435397;1250;99584;-38
2024/02/05 00:30:09;;;;;;;1.70;0.90;;;;;;;4.94;90.18;97859.86;435262;1253;108835;-39
2024/02/05 00:40:14;;;;;;;1.30;1.00;;;;;;;4.91;90.65;97857.59;435478;1253;99215;-40
2024/02/05 01:00:20;;;;;;;1.80;0.70;;;;;;;4.89;91.21;97842.05;435334;1249;108354;-38
2024/02/05 01:20:26;;;;;;;0.90;0.80;;;;;;;4.89;92.56;97806.55;435361;1253;109401;-40
2024/02/05 01:30:31;;;;;;;0.40;0.40;;;;;;;4.88;92.88;97787.38;435384;1251;99218;-40
2024/02/05 01:50:39;;;;;;;1.70;0.90;;;;;;;4.82;93.48;97757.54;435354;1251;107542;-39
2024/02/05 02:00:45;;;;;;;1.60;0.90;;;;;;;4.79;94.08;97744.79;435361;1253;99346;-40
2024/02/05 02:10:50;;;;;;;0.80;0.40;;;;;;;4.83;94.30;97730.03;436292;1252;109343;-39
2024/02/05 02:31:00;;;;;;;0.60;0.60;;;;;;;4.91;95.16;97700.08;435472;1250;112052;-39
2024/02/05 02:41:03;;;;;;;1.50;0.70;;;;;;;4.95;95.00;97701.83;435379;1251;106571;-39
2024/02/05 02:51:06;;;;;;;2.30;0.70;;;;;;;5.00;94.85;97700.52;435376;1253;99231;-39
2024/02/05 03:01:10;;;;;;;1.00;0.60;;;;;;;5.04;94.72;97700.55;435686;1251;109789;-40
2024/02/05 03:11:14;;;;;;;1.20;0.40;;;;;;;5.05;94.68;97694.48;435449;1253;97994;-40
2024/02/05 03:21:17;;;;;;;2.90;2.80;;;;;;;4.99;94.82;97670.41;435497;1253;111099;-39
2024/02/05 03:31:20;;;;;;;2.20;1.90;;;;;;;4.98;94.76;97647.16;435450;1253;108405;-39
2024/02/05 03:41:23;;;;;;;2.50;2.30;;;;;;;5.04;94.86;97626.17;435225;1252;98385;-40
2024/02/05 03:51:27;;;;;;;1.00;0.90;;;;;;;5.13;95.00;97608.86;435264;1253;108301;-39
2024/02/05 04:01:30;;;;;;;1.70;1.00;;;;;;;5.21;95.12;97584.95;435401;1253;99211;-38
2024/02/05 04:11:34;;;;;;;1.10;1.10;;;;;;;5.25;95.01;97557.95;435338;1250;111157;-39
2024/02/05 04:21:41;;;;;;;2.30;2.10;;;;;;;5.33;95.19;97539.65;435364;1250;108481;-40
2024/02/05 04:31:44;;;;;;;31.70;28.50;;;;;;;5.29;95.04;97538.87;435521;1251;99330;-40
2024/02/05 04:41:48;;;;;;;2.40;2.20;;;;;;;5.24;95.11;97534.38;435150;1250;107630;-39
2024/02/05 04:51:52;;;;;;;2.00;1.00;;;;;;;5.29;95.41;97513.86;435334;1251;99702;-39
2024/02/05 05:01:55;;;;;;;3.40;1.80;;;;;;;5.47;95.55;97523.14;435366;1253;112047;-40
2024/02/05 05:11:59;;;;;;;6.10;3.40;;;;;;;5.56;95.68;97503.89;435194;1256;107798;-40
2024/02/05 05:22:03;;;;;;;5.50;2.70;;;;;;;5.61;95.52;97513.52;435195;1256;99244;-40
2024/02/05 05:32:08;;;;;;;18.70;16.90;;;;;;;5.66;95.77;97493.74;435192;1256;107411;-40
2024/02/05 05:42:11;;;;;;;6.60;4.00;;;;;;;5.80;96.00;97487.32;435440;1250;99237;-40
2024/02/05 05:52:15;;;;;;;9.00;4.00;;;;;;;6.01;96.48;97524.79;435018;1256;110884;-40
2024/02/05 06:02:18;;;;;;;4.00;2.70;;;;;;;6.07;97.27;97535.15;435242;1253;108808;-40
2024/02/05 06:12:22;;;;;;;4.10;2.40;;;;;;;6.20;98.35;97530.73;435243;1255;98591;-39
2024/02/05 06:22:25;;;;;;;3.20;1.80;;;;;;;6.36;99.56;97535.90;435171;1256;109204;-39
2024/02/05 06:32:29;;;;;;;2.50;1.70;;;;;;;6.47;100.00;97537.94;435350;1256;99238;-39
2024/02/05 07:02:37;;;;;;;2.40;1.70;;;;;;;6.57;100.00;97590.22;435274;1251;99218;-39
2024/02/05 07:12:40;;;;;;;3.80;1.90;;;;;;;6.63;100.00;97606.17;435167;1256;108816;-39
2024/02/05 07:22:44;;;;;;;2.80;1.40;;;;;;;6.69;100.00;97620.91;435406;1256;99249;-39
2024/02/05 07:32:47;;;;;;;3.60;2.20;;;;;;;6.76;100.00;97626.03;435198;1251;110481;-39
2024/02/05 07:42:52;;;;;;;8.60;5.90;;;;;;;6.85;100.00;97645.83;435291;1256;108231;-40
2024/02/05 07:52:56;;;;;;;3.40;1.70;;;;;;;6.92;100.00;97652.27;435175;1264;99205;-38
2024/02/05 08:02:59;;;;;;;10.70;3.30;;;;;;;6.99;100.00;97658.51;435281;1254;107015;-40
2024/02/05 08:13:04;;;;;;;9.90;1.60;;;;;;;7.08;100.00;97682.41;435266;1264;99353;-38
2024/02/05 08:23:08;;;;;;;12.40;2.50;;;;;;;7.14;100.00;97683.33;435127;1254;111683;-41
2024/02/05 08:33:12;;;;;;;6.90;2.60;;;;;;;7.21;100.00;97685.46;434858;1257;572993;-39
2024/02/05 08:43:16;;;;;;;5.20;2.10;;;;;;;7.31;100.00;97688.82;435300;1252;99247;-39
2024/02/05 08:53:23;;;;;;;6.50;3.50;;;;;;;7.34;100.00;97694.10;435181;1255;108470;-40
2024/02/05 09:03:27;;;;;;;6.80;1.90;;;;;;;7.38;100.00;97700.66;435231;1251;98492;-39
2024/02/05 09:13:31;;;;;;;3.40;2.30;;;;;;;7.51;100.00;97705.80;435224;1254;111774;-39
2024/02/05 09:23:36;;;;;;;4.50;1.90;;;;;;;7.57;100.00;97711.77;435215;1261;108595;-40
2024/02/05 09:33:40;;;;;;;5.20;1.90;;;;;;;7.55;100.00;97716.94;435185;1251;99250;-38
2024/02/05 09:53:51;;;;;;;2.50;1.80;;;;;;;7.58;100.00;97706.23;435261;1251;99225;-40
2024/02/05 10:04:01;;;;;;;5.40;2.80;;;;;;;7.62;100.00;97709.20;435400;1264;111360;-38
2024/02/05 10:14:05;;;;;;;6.70;3.00;;;;;;;7.64;100.00;97714.09;435230;1251;106390;-39
2024/02/05 10:34:21;;;;;;;5.80;4.20;;;;;;;7.79;100.00;97699.90;435275;1251;107503;-40
2024/02/05 10:44:26;;;;;;;3.20;2.40;;;;;;;7.91;100.00;97682.96;435329;1273;99247;-38
2024/02/05 10:54:48;;;;;;;7.70;4.10;;;;;;;7.95;100.00;97682.34;435321;1254;111034;-38
2024/02/05 11:04:54;;;;;;;11.50;7.80;;;;;;;7.83;100.00;97677.34;435209;1255;107611;-40
2024/02/05 11:15:01;;;;;;;2.80;2.50;;;;;;;7.70;100.00;97668.14;435229;1251;99333;-39
2024/02/05 11:25:06;;;;;;;3.40;1.30;;;;;;;7.65;100.00;97661.42;435292;1254;107395;-39
2024/02/05 11:45:15;;;;;;;5.10;2.80;;;;;;;7.59;100.00;97665.42;435032;1254;111629;-41
2024/02/05 12:05:24;;;;;;;3.70;2.50;;;;;;;7.51;100.00;97659.40;435627;1254;98014;-40
2024/02/05 12:25:34;;;;;;;6.60;5.20;;;;;;;7.34;100.00;97670.80;435685;1254;99728;-40
2024/02/05 12:35:55;;;;;;;37.90;14.40;;;;;;;7.38;100.00;97664.43;436308;1251;111738;-40
2024/02/05 12:45:59;;;;;;;9.60;4.70;;;;;;;7.48;100.00;97659.60;435400;1250;107163;-40
2024/02/05 12:56:27;;;;;;;7.00;5.10;;;;;;;7.51;100.00;97654.67;435744;1255;98811;-40
2024/02/05 13:06:32;;;;;;;8.40;4.70;;;;;;;7.57;100.00;97659.73;435274;1253;108309;-40
2024/02/05 13:16:36;;;;;;;8.60;3.00;;;;;;;7.84;100.00;97656.63;435058;1254;98952;-39
2024/02/05 13:26:38;;;;;;;4.00;2.20;;;;;;;8.29;100.00;97662.89;435206;1254;110428;-40
2024/02/05 13:36:42;;;;;;;3.20;2.20;;;;;;;8.55;100.00;97671.49;435195;1254;107930;-39
2024/02/05 14:06:52;;;;;;;4.00;3.00;;;;;;;8.61;100.00;97718.02;435198;1254;99260;-40
2024/02/05 14:16:58;;;;;;;13.00;6.00;;;;;;;8.60;100.00;97725.28;435333;1251;111865;-38
2024/02/05 14:37:05;;;;;;;8.80;5.20;;;;;;;8.54;100.00;97756.55;435264;1256;98813;-40
2024/02/05 14:57:16;;;;;;;15.80;4.70;;;;;;;8.56;100.00;97770.86;435251;1254;99348;-39
2024/02/05 15:07:23;;;;;;;16.10;4.40;;;;;;;8.55;100.00;97790.45;435286;1250;110862;-38
2024/02/05 15:17:26;;;;;;;17.10;5.10;;;;;;;8.43;100.00;97799.06;435127;1251;106406;-39
2024/02/05 16:32:23;;;;;;;23.80;9.80;;;;;;;8.16;100.00;97870.74;433484;1260;108920;-40
2024/02/05 16:42:29;;;;;;;31.50;14.00;;;;;;;8.13;100.00;97869.31;433456;1260;108404;-39
2024/02/05 17:12:46;;;;;;;27.20;12.00;;;;;;;8.07;100.00;97871.91;433983;1260;109309;-39
2024/02/05 17:43:06;;;;;;;36.00;11.90;;;;;;;8.00;100.00;97865.25;433945;1257;107674;-40
2024/02/05 17:53:13;;;;;;;46.50;13.80;;;;;;;8.05;100.00;97865.94;434101;1261;95437;-37
2024/02/05 18:03:20;;;;;;;53.20;19.20;;;;;;;8.12;100.00;97873.92;434112;1257;107752;-40
2024/02/05 18:13:27;;;;;;;51.40;18.40;;;;;;;8.18;100.00;97879.05;434068;1258;95467;-39
2024/02/05 18:23:36;;;;;;;49.80;16.40;;;;;;;8.37;99.53;97882.14;434059;1257;109643;-40
2024/02/05 18:33:41;;;;;;;49.30;18.70;;;;;;;8.52;98.66;97884.70;434058;1261;107587;-39
2024/02/05 18:53:54;;;;;;;41.70;14.10;;;;;;;8.60;96.50;97858.09;434152;1257;109658;-40
2024/02/05 19:04:00;;;;;;;33.10;13.40;;;;;;;8.71;95.33;97861.42;434186;1261;108363;-40
2024/02/05 19:14:07;;;;;;;38.50;14.20;;;;;;;8.73;94.17;97868.50;434113;1260;96520;-39
2024/02/05 19:24:13;;;;;;;52.90;19.10;;;;;;;8.78;93.12;97874.55;434248;1261;110309;-40
2024/02/05 19:44:27;;;;;;;39.50;15.80;;;;;;;8.71;93.00;97876.52;434194;1256;95436;-40
2024/02/05 19:54:35;;;;;;;27.20;8.70;;;;;;;8.68;92.95;97868.86;434175;1257;108431;-40
2024/02/05 20:04:41;;;;;;;19.60;7.00;;;;;;;8.71;92.67;97865.02;434121;1256;108163;-41
2024/02/05 20:14:48;;;;;;;15.80;7.10;;;;;;;8.71;92.27;97860.12;434164;1260;95698;-40
2024/02/05 20:45:06;;;;;;;24.60;6.60;;;;;;;8.74;91.30;97824.28;434017;1257;96116;-40
2024/02/05 20:55:13;;;;;;;23.90;7.70;;;;;;;8.75;90.90;97820.50;434272;1260;108329;-40
2024/02/05 21:05:21;;;;;;;16.20;7.30;;;;;;;8.70;90.82;97817.46;434119;1261;108702;-40
2024/02/05 21:15:28;;;;;;;11.90;6.20;;;;;;;8.75;90.68;97817.71;434120;1260;95697;-41
2024/02/05 21:25:37;;;;;;;21.90;6.60;;;;;;;8.77;90.41;97824.52;433972;1257;108416;-40
2024/02/05 21:45:49;;;;;;;34.90;11.90;;;;;;;8.81;90.12;97823.93;434324;1261;96109;-40
2024/02/05 21:55:55;;;;;;;17.90;8.00;;;;;;;8.84;89.81;97826.58;434151;1261;109416;-40
2024/02/05 22:06:02;;;;;;;20.20;7.80;;;;;;;8.71;89.54;97834.66;434063;1257;107627;-40
2024/02/05 22:26:14;;;;;;;9.00;4.20;;;;;;;8.59;89.41;97840.84;435380;1253;95852;-39
2024/02/05 22:36:20;;;;;;;14.60;5.70;;;;;;;8.58;89.18;97839.89;435235;1256;109369;-39
2024/02/05 22:46:27;;;;;;;11.20;5.30;;;;;;;8.57;88.77;97839.55;435168;1256;95374;-41
2024/02/05 22:56:34;;;;;;;13.40;5.30;;;;;;;8.64;88.52;97844.30;435147;1254;108444;-38
2024/02/05 23:06:40;;;;;;;14.60;7.50;;;;;;;8.65;87.97;97846.56;435301;1254;108064;-40
2024/02/05 23:16:47;;;;;;;13.20;5.50;;;;;;;8.63;87.50;97855.71;435229;1254;95278;-39
2024/02/05 23:26:54;;;;;;;15.30;5.10;;;;;;;8.69;87.55;97865.55;435232;1257;109088;-39
2024/02/05 23:37:01;;;;;;;13.70;5.60;;;;;;;8.66;87.88;97870.32;435208;1253;107714;-39
2024/02/05 23:47:08;;;;;;;11.60;4.30;;;;;;;8.59;87.43;97868.98;435270;1254;96139;-41
2024/02/05 23:57:19;;;;;;;6.30;3.30;;;;;;;8.62;87.33;97866.77;435304;1254;108167;-39
